Flight Track Log - Related Links

Times and Time Zones

All times are in EDT time to prevent confusion due to time zone crossing. See the N762NC flight status page for this flight to view local times or setup timezone preferences in your user account.

Time Position Orientation Groundspeed Altitude Reporting Facility
EDT Latitude Longitude Course Direction KTS MPH feet Rate Location/Type
Wed 09:28:41 PM 41.9333 -87.9000 166° South 150 173 2,000  Level Chicago TRACON
Wed 09:29:41 PM 41.8833 -87.9000 180° South 216 249 4,000 2,200 Climbing Chicago TRACON
Wed 09:30:41 PM 41.8167 -87.8833 169° South 266 306 6,400 2,821 Climbing Chicago TRACON
Wed 09:31:00 PM 41.5590 -87.7087 168° South  Level Estimated
Wed 09:31:55 PM 41.7203 -87.8756 177° South 272 313 10,300  Level Chicago Center
Wed 09:32:00 PM 41.4533 -87.6597 180° South  Level Estimated
Wed 09:32:57 PM 41.6431 -87.8428 162° South 288 331 12,400  Level Chicago Center
Wed 09:33:00 PM 41.3476 -87.6108 166° South  Level Estimated
Wed 09:33:59 PM 41.5547 -87.8036 162° South 333 383 13,900  Level Chicago Center
Wed 09:35:01 PM 41.4544 -87.7597 162° South 367 422 15,400 1,790 Climbing Chicago Center
Wed 09:36:03 PM 41.3489 -87.7125 161° South 391 450 17,600 1,839 Climbing Chicago Center
Wed 09:37:05 PM 41.2417 -87.6636 161° South 402 463 19,200 1,597 Climbing Chicago Center
Wed 09:38:07 PM 41.1275 -87.6231 165° South 421 484 20,900 1,694 Climbing Chicago Center
Wed 09:39:09 PM 40.9867 -87.5769 166° South 436 502 22,700 1,597 Climbing Chicago Center
Wed 09:40:11 PM 40.8669 -87.5378 166° South 443 510 24,200 1,317 Climbing Chicago Center
Wed 09:41:12 PM 40.7433 -87.4961 166° South 453 521 25,400 1,171 Climbing Chicago Center
Wed 09:42:14 PM 40.6183 -87.4558 166° South 460 529 26,600 1,065 Climbing Chicago Center
Wed 09:43:16 PM 40.4853 -87.4242 170° South 480 552 27,600 1,161 Climbing Chicago Center
Wed 09:44:18 PM 40.3456 -87.3964 171° South 485 558 29,000 677 Climbing Chicago Center
Wed 09:45:20 PM 40.2081 -87.3683 171° South 500 575 29,000  Level Chicago Center
Wed 09:45:58 PM 40.1228 -87.3503 171° South 503 579 29,000  Level Indianapolis Center
Wed 09:46:59 PM 39.9572 -87.3247 173° South 503 579 29,000  Level Indianapolis Center
Wed 09:48:01 PM 39.8206 -87.3108 176° South 499 574 29,000  Level Indianapolis Center
Wed 09:49:02 PM 39.6842 -87.3039 178° South 495 570 29,000  Level Indianapolis Center
Wed 09:50:03 PM 39.5483 -87.2958 177° South 494 568 29,000  Level Indianapolis Center
Wed 09:51:05 PM 39.4125 -87.2850 176° South 493 567 29,000  Level Indianapolis Center
Wed 09:52:06 PM 39.2797 -87.2356 164° South 500 575 29,000  Level Indianapolis Center
Wed 09:53:07 PM 39.1483 -87.1858 164° South 495 570 29,000  Level Indianapolis Center
Wed 09:54:08 PM 38.9947 -87.1156 160° South 498 573 29,000  Level Indianapolis Center
Wed 09:55:10 PM 38.8658 -87.0494 158° South 496 571 29,000  Level Indianapolis Center
Wed 09:57:00 PM 38.6689 -86.9861 166° South  Level FlightAware Approximate
Wed 10:04:00 PM 37.9169 -86.7473 166° South  Level FlightAware Approximate
Wed 10:05:00 PM 37.8094 -86.7136 166° South  Level FlightAware Approximate
Wed 10:06:00 PM 37.7019 -86.6799 166° South  Level FlightAware Approximate
Wed 10:07:00 PM 37.5944 -86.6464 166° South  Level FlightAware Approximate
Wed 10:08:00 PM 37.4869 -86.6130 166° South  Level FlightAware Approximate
Wed 10:09:00 PM 37.3794 -86.5797 166° South  Level FlightAware Approximate
Wed 10:10:00 PM 37.2719 -86.5463 166° South  Level FlightAware Approximate
Wed 10:11:00 PM 37.1646 -86.5121 166° South  Level FlightAware Approximate
Wed 10:12:00 PM 37.0572 -86.4779 166° South  Level FlightAware Approximate
Wed 10:13:00 PM 36.9499 -86.4439 166° South  Level FlightAware Approximate
Wed 10:14:00 PM 36.8403 -86.4295 178° South  Level FlightAware Approximate
Wed 10:15:00 PM 36.7296 -86.4240 178° South  Level FlightAware Approximate
Wed 10:16:00 PM 36.6190 -86.4184 178° South  Level FlightAware Approximate
Wed 10:17:00 PM 36.5084 -86.4122 177° South  Level FlightAware Approximate
Wed 10:18:00 PM 36.3978 -86.4057 177° South  Level FlightAware Approximate
Wed 10:19:00 PM 36.2872 -86.3991 177° South  Level FlightAware Approximate
Wed 10:20:00 PM 36.1766 -86.3926 177° South  Level FlightAware Approximate
Wed 10:21:00 PM 36.0660 -86.3861 177° South  Level FlightAware Approximate
Wed 10:22:00 PM 35.9554 -86.3796 177° South  Level FlightAware Approximate
Wed 10:23:00 PM 35.8448 -86.3732 177° South  Level FlightAware Approximate
Wed 10:24:00 PM 35.7342 -86.3667 177° South  Level FlightAware Approximate
Wed 10:25:00 PM 35.6436 -86.2887 145° Southeast  Level FlightAware Approximate
Wed 10:26:00 PM 35.5531 -86.2103 145° Southeast  Level FlightAware Approximate
Wed 10:27:00 PM 35.4619 -86.1331 147° Southeast  Level FlightAware Approximate
Wed 10:28:00 PM 35.3687 -86.0598 147° Southeast  Level FlightAware Approximate
Wed 10:29:00 PM 35.2754 -85.9866 147° Southeast  Level FlightAware Approximate
Wed 10:30:00 PM 35.1808 -85.9163 149° Southeast  Level FlightAware Approximate
Wed 10:31:00 PM 35.0856 -85.8471 149° Southeast  Level FlightAware Approximate
Wed 10:32:00 PM 34.9934 -85.7723 146° Southeast  Level FlightAware Approximate
Wed 10:33:00 PM 34.9030 -85.6943 144° Southeast  Level FlightAware Approximate
Wed 10:34:00 PM 34.8123 -85.6170 148° Southeast  Level FlightAware Approximate
Wed 10:35:00 PM 34.7188 -85.5448 148° Southeast  Level FlightAware Approximate
Wed 10:36:00 PM 34.6253 -85.4727 148° Southeast  Level FlightAware Approximate
Wed 10:37:00 PM 34.5317 -85.4008 148° Southeast  Level FlightAware Approximate
Wed 10:38:00 PM 34.4381 -85.3291 148° Southeast  Level FlightAware Approximate
Wed 10:39:00 PM 34.3441 -85.2581 148° Southeast  Level FlightAware Approximate
Wed 10:40:00 PM 34.2498 -85.1879 149° Southeast  Level FlightAware Approximate
Wed 10:41:00 PM 34.1544 -85.1198 149° Southeast  Level FlightAware Approximate
Wed 10:42:00 PM 34.0841 -85.0179 126° Southeast  Level FlightAware Approximate
Wed 10:43:00 PM 34.0085 -84.9202 133° Southeast  Level FlightAware Approximate
Wed 10:44:00 PM 33.9328 -84.8229 133° Southeast  Level FlightAware Approximate
Wed 10:45:00 PM 33.8570 -84.7256 133° Southeast  Level FlightAware Approximate
Wed 10:46:00 PM 33.7813 -84.6283 133° Southeast  Level FlightAware Approximate
Wed 10:47:00 PM 33.7022 -84.5355 140° Southeast  Level FlightAware Approximate
Wed 10:48:00 PM 33.6235 -84.4424 132° Southeast  Level FlightAware Approximate
Wed 10:49:00 PM 33.6333 -84.4167 North  Level FlightAware Approximate
Wed 10:50:00 PM 33.6367 -84.4279 North  Level Estimated
Wed 10:51:00 PM 33.6367 -84.4279 North  Level Estimated
Wed 10:52:00 PM 33.6367 -84.4279 North  Level Estimated
Wed 10:53:00 PM 33.6367 -84.4279 North  Level Estimated
Wed 10:54:00 PM 33.6367 -84.4279 North  Level Estimated
Wed 10:55:00 PM 33.6367 -84.4279 North  Level Estimated
Wed 10:56:00 PM 33.6367 -84.4279 North  Level Estimated
Wed 10:57:00 PM 33.6367 -84.4279 North  Level Estimated

Login

Don't have an account? Register now (free) for customized features, flight alerts, and more!